Independence, Oregon
Current Conditions -  °F | °C
As of 1:56 PM on Thursday 27 Nov 2014 (Local Time) from KSLE Reporting Station
Light Rain Light Rain  
Wind Chill: 55°   Ceiling: 6500
Heat Index: 55°   Visibility: 9mi
Dew Point: 50°   Wind: 15mph
Humidity: 83%   Direction: 170°S
Pressure: 29.93"   Gusts: 25mph
Location:  44.85°N, 123.19°W
Report Text: KSLE 272156Z 17013G22KT 9SM -RA FEW012 SCT044 OVC065 13/10 A2993 RMK AO2 RAB2059 SLP135 P0001 T01280100
Loading
Personal Weather Stations






























Interactive Weather Map New forecast layout! Learn more

10-Day Weather Forecast

Advertisements
Track Severe Weather on mobile